Terri L. Brusco — WDC3034 — position and weather

sailwx.info

Track history (hours):
 
Tides and Currents Weather Stations Pressure Air Temp Water Temp Dewpoint Dewpoint Depression Visibility Wind Speed Wind Dir Waves Ship Positions

Terri L. Brusco

Owner: Brusco Tug & Barge, Inc., Longview, WA. More information available from US FCC via Universal Licensing System and Coast Guard Vessel Documentation Center.

Last reported at 2015-Dec-19 00:29 UTC. Time now 2016-Feb-08 01:53 UTC.
Position N 38°03' W 122°11'.
Warning: this ship's position is 51 days out of date.

Length 21 m; draft 3 m.

Type: Tug. MMSI: 367001830.

Date/timePositionNaut miles runAvg speedWind from/ knotsBaromVisibWave heightAir tempDewpointWater temp
2015-Dec-19 00:29N 38°03' W 122°11'10 9.9
2015-Dec-18 23:28N 38°01' W 122°23'9 9.9
2015-Dec-18 22:33N 37°52' W 122°24'5 4.8
2015-Dec-18 21:33N 37°49' W 122°19'0 0.1
2015-Dec-18 20:33N 37°49' W 122°18'0 0.0
2015-Dec-18 19:33N 37°49' W 122°18'0 0.0
2015-Dec-18 18:33N 37°49' W 122°18'0 0.0
2015-Dec-18 17:33N 37°49' W 122°18'0 0.0
2015-Dec-18 16:33N 37°49' W 122°18'0 0.0
2015-Dec-18 15:33N 37°49' W 122°18'0 0.0
2015-Dec-18 14:33N 37°49' W 122°18'0 0.0
2015-Dec-18 13:33N 37°49' W 122°18'0 0.0
2015-Dec-18 12:33N 37°49' W 122°18'0 0.0
2015-Dec-18 11:33N 37°49' W 122°18'0 0.0
2015-Dec-18 10:33N 37°49' W 122°18'0 0.0
2015-Dec-18 09:33N 37°49' W 122°18'0 0.0
2015-Dec-18 08:33N 37°49' W 122°18'0 0.0
2015-Dec-18 07:33N 37°49' W 122°18'0 0.0
2015-Dec-18 06:33N 37°49' W 122°18'0 0.0
2015-Dec-18 05:33N 37°49' W 122°18'0 0.0
2015-Dec-18 04:33N 37°49' W 122°18'0 0.0
2015-Dec-18 03:33N 37°49' W 122°18'1 1.1
2015-Dec-18 02:33N 37°49' W 122°20'2 1.6
2015-Dec-18 01:33N 37°49' W 122°21'0 0.1
2015-Dec-18 00:33N 37°49' W 122°21'2 2.4
2015-Dec-17 23:33N 37°49' W 122°18'0 0.0
2015-Dec-17 22:33N 37°49' W 122°18'0 0.0
2015-Dec-17 21:33N 37°49' W 122°18'0 0.0
2015-Dec-17 20:33N 37°49' W 122°18'0 0.0
2015-Dec-17 19:33N 37°49' W 122°18'3 3.4
2015-Dec-17 18:33N 37°47' W 122°22'1 0.5
2015-Dec-17 17:33N 37°46' W 122°22'4 3.9
2015-Dec-17 16:33N 37°49' W 122°18'0 0.0
2015-Dec-17 15:33N 37°49' W 122°18'0 0.0
2015-Dec-17 14:33N 37°49' W 122°18'0 0.0
2015-Dec-17 13:33N 37°49' W 122°18'2 2.4
2015-Dec-17 12:33N 37°49' W 122°21'0 0.3
2015-Dec-17 11:33N 37°50' W 122°21'0 0.0
2015-Dec-17 10:33N 37°50' W 122°21'0 0.0
2015-Dec-17 09:33N 37°50' W 122°21'0 0.0
2015-Dec-17 08:33N 37°50' W 122°21'0 0.0
2015-Dec-17 07:34N 37°50' W 122°21'5 5.1
2015-Dec-17 06:34N 37°45' W 122°22'5 5.4
2015-Dec-17 05:33N 37°49' W 122°19'2 2.2
2015-Dec-17 04:33N 37°50' W 122°21'4 4.2
2015-Dec-17 03:33N 37°53' W 122°25'9 8.7
2015-Dec-17 02:33N 38°02' W 122°22'8 8.1
2015-Dec-17 01:33N 38°04' W 122°12'0 0.1
2015-Dec-16 19:14N 38°03' W 122°12'5 5.2
2015-Dec-16 18:15N 38°03' W 122°18'5 5.9
2015-Dec-16 17:20N 38°00' W 122°24'4 5.8
2015-Dec-16 16:33N 37°56' W 122°26'6 6.1
2015-Dec-16 15:33N 37°50' W 122°23'3 3.3
2015-Dec-16 14:33N 37°49' W 122°19'0 0.1
2015-Dec-16 13:33N 37°49' W 122°19'0 0.0
2015-Dec-16 12:33N 37°49' W 122°19'0 0.0
2015-Dec-16 11:33N 37°49' W 122°19'0 0.0
2015-Dec-16 10:33N 37°49' W 122°19'0 0.0
2015-Dec-16 09:33N 37°49' W 122°19'1 0.6
2015-Dec-16 08:33N 37°49' W 122°19'5 4.5
2015-Dec-16 07:33N 37°46' W 122°14'2 2.3
2015-Dec-16 06:33N 37°48' W 122°17'3 2.6
2015-Dec-16 05:33N 37°49' W 122°20'8 7.8
2015-Dec-16 04:33N 37°55' W 122°25'12 9.7
2015-Dec-16 03:21N 38°04' W 122°15'2 0.3
2015-Dec-15 20:33N 38°03' W 122°12'8 7.2
2015-Dec-15 19:26N 38°02' W 122°22'6 7.3
2015-Dec-15 18:33N 37°56' W 122°26'7 7.1
2015-Dec-15 17:33N 37°50' W 122°22'0 0.0
2015-Dec-15 16:33N 37°50' W 122°22'0 0.2
2015-Dec-15 15:33N 37°50' W 122°21'2 2.4
2015-Dec-15 14:33N 37°49' W 122°18'0 0.0
2015-Dec-15 13:33N 37°49' W 122°18'0 0.0
2015-Dec-15 12:33N 37°49' W 122°18'0 0.0
2015-Dec-15 11:33N 37°49' W 122°18'0 0.0
2015-Dec-15 10:33N 37°49' W 122°18'0 0.0
2015-Dec-15 09:33N 37°49' W 122°18'0 0.0
2015-Dec-15 08:33N 37°49' W 122°18'0 0.0
2015-Dec-15 07:33N 37°49' W 122°18'0 0.0
2015-Dec-15 06:34N 37°49' W 122°18'0 0.0
2015-Dec-15 05:33N 37°49' W 122°18'0 0.0
2015-Dec-15 04:33N 37°49' W 122°18'0 0.0
2015-Dec-15 03:33N 37°49' W 122°18'0 0.0
2015-Dec-15 02:33N 37°49' W 122°18'0 0.4
2015-Dec-15 01:33N 37°49' W 122°19'5 5.2
2015-Dec-15 00:33N 37°52' W 122°24'9 8.5
2015-Dec-14 23:30N 38°01' W 122°23'7 7.1
2015-Dec-14 22:33N 38°04' W 122°15'4 0.5
2015-Dec-14 15:08N 38°03' W 122°10'4 6.0
2015-Dec-14 14:25N 38°04' W 122°16'6 6.6
2015-Dec-14 13:28N 38°01' W 122°23'5 5.9
2015-Dec-14 12:33N 37°56' W 122°26'7 7.2
2015-Dec-14 11:33N 37°50' W 122°22'0 0.2
2015-Dec-14 10:33N 37°50' W 122°21'2 2.4
2015-Dec-14 09:33N 37°49' W 122°18'0 0.0
2015-Dec-14 08:33N 37°49' W 122°18'0 0.0
2015-Dec-14 07:33N 37°49' W 122°18'0 0.0
2015-Dec-14 06:33N 37°49' W 122°18'0 0.0
2015-Dec-14 05:33N 37°49' W 122°18'0 0.0
2015-Dec-14 04:33N 37°49' W 122°18'0 0.0
2015-Dec-14 03:33N 37°49' W 122°18'0 0.0
2015-Dec-14 02:33N 37°49' W 122°18'0 0.0
2015-Dec-14 01:33N 37°49' W 122°18'0 0.0
2015-Dec-14 00:33N 37°49' W 122°18'0 0.0
2015-Dec-13 23:33N 37°49' W 122°18'0 0.0
2015-Dec-13 22:33N 37°49' W 122°18'1 1.3
2015-Dec-13 21:33N 37°49' W 122°20'1 1.4
2015-Dec-13 20:33N 37°50' W 122°21'0 0.0
2015-Dec-13 19:33N 37°50' W 122°21'0 0.0
2015-Dec-13 18:33N 37°50' W 122°21'0 0.0
2015-Dec-13 17:33N 37°50' W 122°21'0 0.1
2015-Dec-13 16:33N 37°50' W 122°21'2 1.5
2015-Dec-13 15:33N 37°51' W 122°23'7 7.2
2015-Dec-13 14:33N 37°58' W 122°26'10 7.6
2015-Dec-13 13:10N 38°04' W 122°15'2 0.2
2015-Dec-13 04:30N 38°03' W 122°13'4 4.4
2015-Dec-13 03:32N 38°03' W 122°18'5 4.6
2015-Dec-13 02:28N 38°01' W 122°23'4 4.7
2015-Dec-13 01:32N 37°57' W 122°26'5 5.4
2015-Dec-13 00:33N 37°52' W 122°24'5 4.8
2015-Dec-12 23:33N 37°49' W 122°19'0 0.4
2015-Dec-12 22:33N 37°49' W 122°18'0 0.0
2015-Dec-12 21:33N 37°49' W 122°18'0 0.0
2015-Dec-12 20:33N 37°49' W 122°18'0 0.0
2015-Dec-12 19:33N 37°49' W 122°18'0 0.0
2015-Dec-12 18:33N 37°49' W 122°18'0 0.0
2015-Dec-12 17:33N 37°49' W 122°18'0 0.0
2015-Dec-12 16:33N 37°49' W 122°18'2 2.4
2015-Dec-12 15:33N 37°50' W 122°21'2 1.7
2015-Dec-12 14:33N 37°49' W 122°20'1 0.9
2015-Dec-12 13:33N 37°49' W 122°19'0 0.3
2015-Dec-12 12:33N 37°49' W 122°19'0 0.0
2015-Dec-12 11:33N 37°49' W 122°19'0 0.0
2015-Dec-12 10:33N 37°49' W 122°19'0 0.1
2015-Dec-12 09:33N 37°49' W 122°19'2 1.6
2015-Dec-12 08:33N 37°48' W 122°20'4 4.5
2015-Dec-12 07:33N 37°46' W 122°15'1 0.5
2015-Dec-12 06:33N 37°47' W 122°15'4 3.7
2015-Dec-12 05:33N 37°49' W 122°18'0 0.0
2015-Dec-12 04:33N 37°49' W 122°18'0 0.2
2015-Dec-12 03:33N 37°49' W 122°19'7 7.1
2015-Dec-12 02:33N 37°54' W 122°25'12 9.3
2015-Dec-12 01:16N 38°04' W 122°16'0 0.0
2015-Dec-11 19:30N 38°04' W 122°16'8 8.6
2015-Dec-11 18:32N 37°59' W 122°25'8 8.1
2015-Dec-11 17:33N 37°52' W 122°23'4 4.1
2015-Dec-11 16:33N 37°49' W 122°20'1 1.0
2015-Dec-11 15:33N 37°49' W 122°19'1 0.9
2015-Dec-11 14:33N 37°49' W 122°20'7 7.3
2015-Dec-11 13:33N 37°55' W 122°25'14 7.0
2015-Dec-11 11:32N 38°02' W 122°10'0 0.0
2015-Dec-11 05:17N 38°02' W 122°10'4 5.8
2015-Dec-11 04:32N 38°04' W 122°15'7 5.9
2015-Dec-11 03:20N 38°01' W 122°24'5 6.0
2015-Dec-11 02:33N 37°56' W 122°26'7 6.6
2015-Dec-11 01:33N 37°50' W 122°22'3 3.1
2015-Dec-11 00:33N 37°49' W 122°19'0 0.0
2015-Dec-10 23:33N 37°49' W 122°19'0 0.0
2015-Dec-10 22:33N 37°49' W 122°19'0 0.1
2015-Dec-10 21:33N 37°49' W 122°18'1 0.6
2015-Dec-10 20:33N 37°49' W 122°19'5 5.0
2015-Dec-10 19:34N 37°52' W 122°24'7 6.4
2015-Dec-10 18:33N 37°59' W 122°26'6 6.2
2015-Dec-10 17:34N 37°53' W 122°24'6 5.6
2015-Dec-10 16:34N 37°49' W 122°19'4 3.7
2015-Dec-10 15:34N 37°51' W 122°23'7 7.1
2015-Dec-10 14:33N 37°57' W 122°26'2 2.1
2015-Dec-10 13:26N 37°60' W 122°25'9 6.5
2015-Dec-10 12:04N 38°04' W 122°15'4 7.0
2015-Dec-10 11:33N 38°03' W 122°11'  
Track history (hours):
 
Tides and Currents Weather Stations Pressure Air Temp Water Temp Dewpoint Dewpoint Depression Visibility Wind Speed Wind Dir Waves Ship Positions

Terri L. Brusco

Owner: Brusco Tug & Barge, Inc., Longview, WA. More information available from US FCC via Universal Licensing System and Coast Guard Vessel Documentation Center.

Last reported at 2015-Dec-19 00:29 UTC. Time now 2016-Feb-08 01:53 UTC.
Position N 38°03' W 122°11'.
Warning: this ship's position is 51 days out of date.

Length 21 m; draft 3 m.

Type: Tug. MMSI: 367001830.

Date/timePositionNaut miles runAvg speedWind from/ knotsBaromVisibWave heightAir tempDewpointWater temp
2015-Dec-19 00:29N 38°03' W 122°11'10 9.9
2015-Dec-18 23:28N 38°01' W 122°23'9 9.9
2015-Dec-18 22:33N 37°52' W 122°24'5 4.8
2015-Dec-18 21:33N 37°49' W 122°19'0 0.1
2015-Dec-18 20:33N 37°49' W 122°18'0 0.0
2015-Dec-18 19:33N 37°49' W 122°18'0 0.0
2015-Dec-18 18:33N 37°49' W 122°18'0 0.0
2015-Dec-18 17:33N 37°49' W 122°18'0 0.0
2015-Dec-18 16:33N 37°49' W 122°18'0 0.0
2015-Dec-18 15:33N 37°49' W 122°18'0 0.0
2015-Dec-18 14:33N 37°49' W 122°18'0 0.0
2015-Dec-18 13:33N 37°49' W 122°18'0 0.0
2015-Dec-18 12:33N 37°49' W 122°18'0 0.0
2015-Dec-18 11:33N 37°49' W 122°18'0 0.0
2015-Dec-18 10:33N 37°49' W 122°18'0 0.0
2015-Dec-18 09:33N 37°49' W 122°18'0 0.0
2015-Dec-18 08:33N 37°49' W 122°18'0 0.0
2015-Dec-18 07:33N 37°49' W 122°18'0 0.0
2015-Dec-18 06:33N 37°49' W 122°18'0 0.0
2015-Dec-18 05:33N 37°49' W 122°18'0 0.0
2015-Dec-18 04:33N 37°49' W 122°18'0 0.0
2015-Dec-18 03:33N 37°49' W 122°18'1 1.1
2015-Dec-18 02:33N 37°49' W 122°20'2 1.6
2015-Dec-18 01:33N 37°49' W 122°21'0 0.1
2015-Dec-18 00:33N 37°49' W 122°21'2 2.4
2015-Dec-17 23:33N 37°49' W 122°18'0 0.0
2015-Dec-17 22:33N 37°49' W 122°18'0 0.0
2015-Dec-17 21:33N 37°49' W 122°18'0 0.0
2015-Dec-17 20:33N 37°49' W 122°18'0 0.0
2015-Dec-17 19:33N 37°49' W 122°18'3 3.4
2015-Dec-17 18:33N 37°47' W 122°22'1 0.5
2015-Dec-17 17:33N 37°46' W 122°22'4 3.9
2015-Dec-17 16:33N 37°49' W 122°18'0 0.0
2015-Dec-17 15:33N 37°49' W 122°18'0 0.0
2015-Dec-17 14:33N 37°49' W 122°18'0 0.0
2015-Dec-17 13:33N 37°49' W 122°18'2 2.4
2015-Dec-17 12:33N 37°49' W 122°21'0 0.3
2015-Dec-17 11:33N 37°50' W 122°21'0 0.0
2015-Dec-17 10:33N 37°50' W 122°21'0 0.0
2015-Dec-17 09:33N 37°50' W 122°21'0 0.0
2015-Dec-17 08:33N 37°50' W 122°21'0 0.0
2015-Dec-17 07:34N 37°50' W 122°21'5 5.1
2015-Dec-17 06:34N 37°45' W 122°22'5 5.4
2015-Dec-17 05:33N 37°49' W 122°19'2 2.2
2015-Dec-17 04:33N 37°50' W 122°21'4 4.2
2015-Dec-17 03:33N 37°53' W 122°25'9 8.7
2015-Dec-17 02:33N 38°02' W 122°22'8 8.1
2015-Dec-17 01:33N 38°04' W 122°12'0 0.1
2015-Dec-16 19:14N 38°03' W 122°12'5 5.2
2015-Dec-16 18:15N 38°03' W 122°18'5 5.9
2015-Dec-16 17:20N 38°00' W 122°24'4 5.8
2015-Dec-16 16:33N 37°56' W 122°26'6 6.1
2015-Dec-16 15:33N 37°50' W 122°23'3 3.3
2015-Dec-16 14:33N 37°49' W 122°19'0 0.1
2015-Dec-16 13:33N 37°49' W 122°19'0 0.0
2015-Dec-16 12:33N 37°49' W 122°19'0 0.0
2015-Dec-16 11:33N 37°49' W 122°19'0 0.0
2015-Dec-16 10:33N 37°49' W 122°19'0 0.0
2015-Dec-16 09:33N 37°49' W 122°19'1 0.6
2015-Dec-16 08:33N 37°49' W 122°19'5 4.5
2015-Dec-16 07:33N 37°46' W 122°14'2 2.3
2015-Dec-16 06:33N 37°48' W 122°17'3 2.6
2015-Dec-16 05:33N 37°49' W 122°20'8 7.8
2015-Dec-16 04:33N 37°55' W 122°25'12 9.7
2015-Dec-16 03:21N 38°04' W 122°15'2 0.3
2015-Dec-15 20:33N 38°03' W 122°12'8 7.2
2015-Dec-15 19:26N 38°02' W 122°22'6 7.3
2015-Dec-15 18:33N 37°56' W 122°26'7 7.1
2015-Dec-15 17:33N 37°50' W 122°22'0 0.0
2015-Dec-15 16:33N 37°50' W 122°22'0 0.2
2015-Dec-15 15:33N 37°50' W 122°21'2 2.4
2015-Dec-15 14:33N 37°49' W 122°18'0 0.0
2015-Dec-15 13:33N 37°49' W 122°18'0 0.0
2015-Dec-15 12:33N 37°49' W 122°18'0 0.0
2015-Dec-15 11:33N 37°49' W 122°18'0 0.0
2015-Dec-15 10:33N 37°49' W 122°18'0 0.0
2015-Dec-15 09:33N 37°49' W 122°18'0 0.0
2015-Dec-15 08:33N 37°49' W 122°18'0 0.0
2015-Dec-15 07:33N 37°49' W 122°18'0 0.0
2015-Dec-15 06:34N 37°49' W 122°18'0 0.0
2015-Dec-15 05:33N 37°49' W 122°18'0 0.0
2015-Dec-15 04:33N 37°49' W 122°18'0 0.0
2015-Dec-15 03:33N 37°49' W 122°18'0 0.0
2015-Dec-15 02:33N 37°49' W 122°18'0 0.4
2015-Dec-15 01:33N 37°49' W 122°19'5 5.2
2015-Dec-15 00:33N 37°52' W 122°24'9 8.5
2015-Dec-14 23:30N 38°01' W 122°23'7 7.1
2015-Dec-14 22:33N 38°04' W 122°15'4 0.5
2015-Dec-14 15:08N 38°03' W 122°10'4 6.0
2015-Dec-14 14:25N 38°04' W 122°16'6 6.6
2015-Dec-14 13:28N 38°01' W 122°23'5 5.9
2015-Dec-14 12:33N 37°56' W 122°26'7 7.2
2015-Dec-14 11:33N 37°50' W 122°22'0 0.2
2015-Dec-14 10:33N 37°50' W 122°21'2 2.4
2015-Dec-14 09:33N 37°49' W 122°18'0 0.0
2015-Dec-14 08:33N 37°49' W 122°18'0 0.0
2015-Dec-14 07:33N 37°49' W 122°18'0 0.0
2015-Dec-14 06:33N 37°49' W 122°18'0 0.0
2015-Dec-14 05:33N 37°49' W 122°18'0 0.0
2015-Dec-14 04:33N 37°49' W 122°18'0 0.0
2015-Dec-14 03:33N 37°49' W 122°18'0 0.0
2015-Dec-14 02:33N 37°49' W 122°18'0 0.0
2015-Dec-14 01:33N 37°49' W 122°18'0 0.0
2015-Dec-14 00:33N 37°49' W 122°18'0 0.0
2015-Dec-13 23:33N 37°49' W 122°18'0 0.0
2015-Dec-13 22:33N 37°49' W 122°18'1 1.3
2015-Dec-13 21:33N 37°49' W 122°20'1 1.4
2015-Dec-13 20:33N 37°50' W 122°21'0 0.0
2015-Dec-13 19:33N 37°50' W 122°21'0 0.0
2015-Dec-13 18:33N 37°50' W 122°21'0 0.0
2015-Dec-13 17:33N 37°50' W 122°21'0 0.1
2015-Dec-13 16:33N 37°50' W 122°21'2 1.5
2015-Dec-13 15:33N 37°51' W 122°23'7 7.2
2015-Dec-13 14:33N 37°58' W 122°26'10 7.6
2015-Dec-13 13:10N 38°04' W 122°15'2 0.2
2015-Dec-13 04:30N 38°03' W 122°13'4 4.4
2015-Dec-13 03:32N 38°03' W 122°18'5 4.6
2015-Dec-13 02:28N 38°01' W 122°23'4 4.7
2015-Dec-13 01:32N 37°57' W 122°26'5 5.4
2015-Dec-13 00:33N 37°52' W 122°24'5 4.8
2015-Dec-12 23:33N 37°49' W 122°19'0 0.4
2015-Dec-12 22:33N 37°49' W 122°18'0 0.0
2015-Dec-12 21:33N 37°49' W 122°18'0 0.0
2015-Dec-12 20:33N 37°49' W 122°18'0 0.0
2015-Dec-12 19:33N 37°49' W 122°18'0 0.0
2015-Dec-12 18:33N 37°49' W 122°18'0 0.0
2015-Dec-12 17:33N 37°49' W 122°18'0 0.0
2015-Dec-12 16:33N 37°49' W 122°18'2 2.4
2015-Dec-12 15:33N 37°50' W 122°21'2 1.7
2015-Dec-12 14:33N 37°49' W 122°20'1 0.9
2015-Dec-12 13:33N 37°49' W 122°19'0 0.3
2015-Dec-12 12:33N 37°49' W 122°19'0 0.0
2015-Dec-12 11:33N 37°49' W 122°19'0 0.0
2015-Dec-12 10:33N 37°49' W 122°19'0 0.1
2015-Dec-12 09:33N 37°49' W 122°19'2 1.6
2015-Dec-12 08:33N 37°48' W 122°20'4 4.5
2015-Dec-12 07:33N 37°46' W 122°15'1 0.5
2015-Dec-12 06:33N 37°47' W 122°15'4 3.7
2015-Dec-12 05:33N 37°49' W 122°18'0 0.0
2015-Dec-12 04:33N 37°49' W 122°18'0 0.2
2015-Dec-12 03:33N 37°49' W 122°19'7 7.1
2015-Dec-12 02:33N 37°54' W 122°25'12 9.3
2015-Dec-12 01:16N 38°04' W 122°16'0 0.0
2015-Dec-11 19:30N 38°04' W 122°16'8 8.6
2015-Dec-11 18:32N 37°59' W 122°25'8 8.1
2015-Dec-11 17:33N 37°52' W 122°23'4 4.1
2015-Dec-11 16:33N 37°49' W 122°20'1 1.0
2015-Dec-11 15:33N 37°49' W 122°19'1 0.9
2015-Dec-11 14:33N 37°49' W 122°20'7 7.3
2015-Dec-11 13:33N 37°55' W 122°25'14 7.0
2015-Dec-11 11:32N 38°02' W 122°10'0 0.0
2015-Dec-11 05:17N 38°02' W 122°10'4 5.8
2015-Dec-11 04:32N 38°04' W 122°15'7 5.9
2015-Dec-11 03:20N 38°01' W 122°24'5 6.0
2015-Dec-11 02:33N 37°56' W 122°26'7 6.6
2015-Dec-11 01:33N 37°50' W 122°22'3 3.1
2015-Dec-11 00:33N 37°49' W 122°19'0 0.0
2015-Dec-10 23:33N 37°49' W 122°19'0 0.0
2015-Dec-10 22:33N 37°49' W 122°19'0 0.1
2015-Dec-10 21:33N 37°49' W 122°18'1 0.6
2015-Dec-10 20:33N 37°49' W 122°19'5 5.0
2015-Dec-10 19:34N 37°52' W 122°24'7 6.4
2015-Dec-10 18:33N 37°59' W 122°26'6 6.2
2015-Dec-10 17:34N 37°53' W 122°24'6 5.6
2015-Dec-10 16:34N 37°49' W 122°19'4 3.7
2015-Dec-10 15:34N 37°51' W 122°23'7 7.1
2015-Dec-10 14:33N 37°57' W 122°26'2 2.1
2015-Dec-10 13:26N 37°60' W 122°25'9 6.5
2015-Dec-10 12:04N 38°04' W 122°15'4 7.0
2015-Dec-10 11:33N 38°03' W 122°11'  

Dump ship's entire track history